Aeroporto :
LOGIN :

Iscrizione | Disclaimer

   EN    FR    IT 

 










Sommario :    VFR   VFR Marginale   IFR   IFR Intensivo   IFR Molto Intensivo
Visibilità : 
Base nubi : 
>= 8 km
>= 3000ft
5 / 8 km
1000 / 3000 ft
1500m / 5 km
500 / 1000 ft
800 / 1500m
200 / 500 ft
< 800m
< 200 ft
Simboli :   Temporali  Nebbia  Neve Forte  Precipitazioni Forti  Vento > 20 kt
SIGMETs :   Varie  Temporali  Ghiacco  Turbolenza  Onda orograficha  Ceneri Vulcaniche






- Altitudine del aeroporto : 157 ft
- Codice IATA : LIL


LFQQ - Lille Lesquin

ULTIMO METAR :
  • 160230Z AUTO 14004KT 8000 OVC044 00/M02 Q1029

METARs OBSOLETI :
  • 160200Z AUTO VRB02KT 9000 OVC044 00/M02 Q1030 TEMPO 3000 BR
  • 160130Z AUTO 00000KT 9999 OVC045 01/M01 Q1030 TEMPO 3000 BR
  • 160100Z AUTO 18004KT 8000 OVC045 00/M01 Q1030 TEMPO 3000 BR
  • 160030Z AUTO 20003KT 8000 OVC045 00/M01 Q1030 TEMPO 3000 BR
  • 160000Z AUTO 18001KT 8000 OVC045 01/M01 Q1030 TEMPO 3000 BR

TAF TAF LFQQ
Valido dal 16 a 00 ore il 17 a 06 ore UTC


152300Z 1600/1706 02007KT 9999 BKN035
PROB40 1600/1606 3000 BR
BECMG 1606/1608 16010KT
BECMG 1610/1613 2000 SN OVC010
TEMPO 1613/1618 16015G25KT 0600 SN FG OVC005
PROB40
TEMPO 1614/1618 FZRA
BECMG 1619/1621 30010KT 8000 NSW
ATIS : +33 3 20 16 19 54



MetMap, La meteo Aeronautica in un colpo d'occhio ! - Copyright ORBIFLY Dicembre 2007 - Disclaimer

ORBIFLY MET'MAP TEAM :

Programmazione e sviluppo : Alexandra Zaïnal
Concezione : Baudouin d'Aumeries
Aiuto per la programmazione : Marc-Olivier Méhu
Supporto tecnico e logistico : Manuel Goepfert
Aiuto per la traduzione : Arnaldo La Scala

Contatto : metmap@orbifly.com




FONTI E CREDITI :

   NOAA